NKS238 KFLL-KJAX
Flight info
| Callsign | NKS238 |
|---|---|
| Flight time | 0h 48m |
| Altitude | 30000 |
| Route | FRSBE2 STYMY ORL HAINY QUBEN2 |
| Aircraft | A320/M-SDE3FGHIRWY/LB1 |
Departure
| Time | 2026-05-03 22:42 |
|---|---|
| Airport | Fort Lauderdale Hollywood International Airport (KFLL) |
Arrival
| Time | 2026-05-03 23:30 |
|---|---|
| Airport | Jacksonville International Airport (KJAX) |
| Time | Latitude | Longitude | Altitude | Speed | Heading |
|---|---|---|---|---|---|
| 2026-05-03 21:57 | 26.06879 | -80.14297 | 16 ft | 0 kts | 0° |
| 2026-05-03 22:06 | 26.06867 | -80.14297 | 17 ft | 4 kts | 0° |
| 2026-05-03 22:06 | 26.06845 | -80.14298 | 18 ft | 2 kts | 0° |
| 2026-05-03 22:06 | 26.06823 | -80.14293 | 18 ft | 4 kts | 308° |
| 2026-05-03 22:07 | 26.06817 | -80.14270 | 17 ft | 4 kts | 270° |
| 2026-05-03 22:07 | 26.06817 | -80.14262 | 16 ft | 0 kts | 270° |
| 2026-05-03 22:08 | 26.06817 | -80.14268 | 16 ft | 3 kts | 270° |
| 2026-05-03 22:08 | 26.06817 | -80.14298 | 16 ft | 5 kts | 270° |
| 2026-05-03 22:09 | 26.06818 | -80.14323 | 16 ft | 1 kts | 270° |
| 2026-05-03 22:09 | 26.06818 | -80.14325 | 16 ft | 0 kts | 270° |
| 2026-05-03 22:09 | 26.06818 | -80.14326 | 16 ft | 1 kts | 270° |
| 2026-05-03 22:10 | 26.06818 | -80.14435 | 16 ft | 11 kts | 270° |
| 2026-05-03 22:10 | 26.06819 | -80.14510 | 16 ft | 0 kts | 271° |
| 2026-05-03 22:14 | 26.06818 | -80.14537 | 16 ft | 10 kts | 263° |
| 2026-05-03 22:14 | 26.06766 | -80.14635 | 15 ft | 17 kts | 262° |
| 2026-05-03 22:14 | 26.06767 | -80.14779 | 15 ft | 20 kts | 270° |
| 2026-05-03 22:15 | 26.06767 | -80.14945 | 16 ft | 23 kts | 270° |
| 2026-05-03 22:15 | 26.06760 | -80.15110 | 16 ft | 14 kts | 229° |
| 2026-05-03 22:15 | 26.06696 | -80.15177 | 22 ft | 13 kts | 259° |
| 2026-05-03 22:15 | 26.06696 | -80.15295 | 16 ft | 19 kts | 270° |
| 2026-05-03 22:16 | 26.06697 | -80.15414 | 16 ft | 0 kts | 270° |
| 2026-05-03 22:19 | 26.06697 | -80.15429 | 16 ft | 5 kts | 270° |
| 2026-05-03 22:20 | 26.06697 | -80.15491 | 16 ft | 10 kts | 270° |
| 2026-05-03 22:20 | 26.06697 | -80.15532 | 16 ft | 1 kts | 270° |
| 2026-05-03 22:20 | 26.06697 | -80.15540 | 16 ft | 0 kts | 270° |
| 2026-05-03 22:23 | 26.06697 | -80.15566 | 16 ft | 7 kts | 270° |
| 2026-05-03 22:23 | 26.06697 | -80.15573 | 16 ft | 0 kts | 270° |
| 2026-05-03 22:24 | 26.06697 | -80.15575 | 16 ft | 1 kts | 270° |
| 2026-05-03 22:24 | 26.06697 | -80.15599 | 16 ft | 5 kts | 270° |
| 2026-05-03 22:24 | 26.06697 | -80.15649 | 16 ft | 4 kts | 270° |
| 2026-05-03 22:24 | 26.06697 | -80.15651 | 16 ft | 0 kts | 270° |
| 2026-05-03 22:27 | 26.06697 | -80.15682 | 16 ft | 6 kts | 270° |
| 2026-05-03 22:28 | 26.06698 | -80.15720 | 16 ft | 0 kts | 271° |
| 2026-05-03 22:29 | 26.06698 | -80.15731 | 16 ft | 4 kts | 271° |
| 2026-05-03 22:30 | 26.06698 | -80.15755 | 16 ft | 0 kts | 271° |
| 2026-05-03 22:31 | 26.06698 | -80.15757 | 16 ft | 1 kts | 271° |
| 2026-05-03 22:32 | 26.06699 | -80.15778 | 16 ft | 4 kts | 271° |
| 2026-05-03 22:32 | 26.06684 | -80.15814 | 18 ft | 3 kts | 219° |
| 2026-05-03 22:41 | 26.06682 | -80.15815 | 16 ft | 2 kts | 216° |
| 2026-05-03 22:41 | 26.06634 | -80.15824 | 17 ft | 11 kts | 178° |
| 2026-05-03 22:41 | 26.06589 | -80.15768 | 19 ft | 11 kts | 92° |
| 2026-05-03 22:42 | 26.06588 | -80.15572 | 24 ft | 64 kts | 90° |
| 2026-05-03 22:42 | 26.06585 | -80.14718 | 30 ft | 150 kts | 90° |
| 2026-05-03 22:42 | 26.06580 | -80.13436 | 644 ft | 172 kts | 88° |
| 2026-05-03 22:42 | 26.06604 | -80.12082 | 1582 ft | 181 kts | 86° |
| 2026-05-03 22:43 | 26.06834 | -80.10710 | 2352 ft | 184 kts | 64° |
| 2026-05-03 22:43 | 26.07534 | -80.09430 | 2704 ft | 205 kts | 55° |
| 2026-05-03 22:43 | 26.08375 | -80.08042 | 3022 ft | 227 kts | 50° |
| 2026-05-03 22:43 | 26.09643 | -80.06901 | 3404 ft | 247 kts | 22° |
| 2026-05-03 22:44 | 26.11329 | -80.06199 | 3871 ft | 269 kts | 17° |
| 2026-05-03 22:44 | 26.13119 | -80.05490 | 4152 ft | 275 kts | 16° |
| 2026-05-03 22:44 | 26.14963 | -80.05076 | 4409 ft | 274 kts | 0° |
| 2026-05-03 22:44 | 26.16858 | -80.05218 | 4779 ft | 273 kts | 344° |
| 2026-05-03 22:45 | 26.18664 | -80.05857 | 5763 ft | 274 kts | 336° |
| 2026-05-03 22:45 | 26.20446 | -80.06630 | 6710 ft | 275 kts | 328° |
| 2026-05-03 22:45 | 26.21998 | -80.07863 | 7590 ft | 274 kts | 311° |
| 2026-05-03 22:45 | 26.23152 | -80.09541 | 8512 ft | 273 kts | 295° |
| 2026-05-03 22:46 | 26.23898 | -80.11490 | 9459 ft | 274 kts | 289° |
| 2026-05-03 22:46 | 26.24585 | -80.13434 | 10537 ft | 267 kts | 289° |
| 2026-05-03 22:46 | 26.25284 | -80.15358 | 11426 ft | 269 kts | 291° |
| 2026-05-03 22:46 | 26.26192 | -80.17197 | 12260 ft | 274 kts | 298° |
| 2026-05-03 22:47 | 26.27218 | -80.18998 | 12805 ft | 277 kts | 298° |
| 2026-05-03 22:47 | 26.28251 | -80.20812 | 12957 ft | 276 kts | 298° |
| 2026-05-03 22:47 | 26.29271 | -80.22599 | 12997 ft | 276 kts | 298° |
| 2026-05-03 22:47 | 26.30296 | -80.24397 | 13001 ft | 275 kts | 298° |
| 2026-05-03 22:48 | 26.31323 | -80.26199 | 13004 ft | 275 kts | 298° |
| 2026-05-03 22:48 | 26.32347 | -80.28004 | 13005 ft | 275 kts | 298° |
| 2026-05-03 22:48 | 26.33371 | -80.29809 | 13019 ft | 276 kts | 298° |
| 2026-05-03 22:48 | 26.34438 | -80.31703 | 13216 ft | 301 kts | 298° |
| 2026-05-03 22:49 | 26.35595 | -80.33763 | 13398 ft | 325 kts | 298° |
| 2026-05-03 22:49 | 26.36842 | -80.35978 | 13546 ft | 348 kts | 298° |
| 2026-05-03 22:49 | 26.38149 | -80.38288 | 13932 ft | 362 kts | 298° |
| 2026-05-03 22:49 | 26.39509 | -80.40683 | 14555 ft | 368 kts | 299° |
| 2026-05-03 22:50 | 26.40882 | -80.43099 | 15192 ft | 370 kts | 298° |
| 2026-05-03 22:50 | 26.42268 | -80.45537 | 15809 ft | 373 kts | 298° |
| 2026-05-03 22:50 | 26.43661 | -80.47996 | 16430 ft | 375 kts | 298° |
| 2026-05-03 22:50 | 26.45060 | -80.50469 | 17028 ft | 378 kts | 298° |
| 2026-05-03 22:51 | 26.46641 | -80.52847 | 17622 ft | 388 kts | 310° |
| 2026-05-03 22:51 | 26.48852 | -80.54659 | 18216 ft | 404 kts | 327° |
| 2026-05-03 22:51 | 26.51518 | -80.55715 | 18738 ft | 415 kts | 337° |
| 2026-05-03 22:51 | 26.54304 | -80.56618 | 19244 ft | 419 kts | 337° |
| 2026-05-03 22:52 | 26.57130 | -80.57512 | 19769 ft | 422 kts | 338° |
| 2026-05-03 22:52 | 26.59975 | -80.58403 | 20258 ft | 426 kts | 337° |
| 2026-05-03 22:52 | 26.62848 | -80.59307 | 20762 ft | 430 kts | 336° |
| 2026-05-03 22:52 | 26.65595 | -80.60539 | 21427 ft | 416 kts | 326° |
| 2026-05-03 22:53 | 26.68078 | -80.61921 | 23032 ft | 389 kts | 325° |
| 2026-05-03 22:53 | 26.70444 | -80.63167 | 24606 ft | 361 kts | 326° |
| 2026-05-03 22:53 | 26.72652 | -80.64266 | 26018 ft | 332 kts | 326° |
| 2026-05-03 22:53 | 26.74745 | -80.65257 | 26788 ft | 329 kts | 326° |
| 2026-05-03 22:54 | 26.76896 | -80.66280 | 26911 ft | 342 kts | 326° |
| 2026-05-03 22:54 | 26.79091 | -80.67343 | 27036 ft | 354 kts | 326° |
| 2026-05-03 22:54 | 26.81389 | -80.68473 | 27163 ft | 366 kts | 326° |
| 2026-05-03 22:54 | 26.83748 | -80.69652 | 27291 ft | 377 kts | 326° |
| 2026-05-03 22:55 | 26.86170 | -80.70872 | 27651 ft | 382 kts | 326° |
| 2026-05-03 22:55 | 26.88580 | -80.72078 | 28134 ft | 385 kts | 326° |
| 2026-05-03 22:55 | 26.91071 | -80.73315 | 28584 ft | 388 kts | 326° |
| 2026-05-03 22:55 | 26.93516 | -80.74527 | 29030 ft | 391 kts | 326° |
| 2026-05-03 22:56 | 26.96012 | -80.75764 | 29468 ft | 393 kts | 326° |
| 2026-05-03 22:56 | 26.98609 | -80.76865 | 29826 ft | 409 kts | 334° |
| 2026-05-03 22:56 | 27.01389 | -80.77725 | 29994 ft | 419 kts | 335° |
| 2026-05-03 22:56 | 27.04257 | -80.78579 | 30060 ft | 432 kts | 336° |
| 2026-05-03 22:57 | 27.07218 | -80.79440 | 30059 ft | 445 kts | 336° |
| 2026-05-03 22:57 | 27.10266 | -80.80318 | 30056 ft | 458 kts | 336° |
| 2026-05-03 22:57 | 27.13387 | -80.81217 | 30056 ft | 469 kts | 336° |
| 2026-05-03 22:58 | 27.19809 | -80.83079 | 30055 ft | 480 kts | 337° |
| 2026-05-03 22:58 | 27.26270 | -80.84963 | 30054 ft | 483 kts | 337° |
| 2026-05-03 22:59 | 27.32782 | -80.86871 | 30054 ft | 483 kts | 336° |
| 2026-05-03 22:59 | 27.39282 | -80.88794 | 30055 ft | 481 kts | 335° |
| 2026-05-03 23:00 | 27.45961 | -80.89980 | 30064 ft | 506 kts | 358° |
| 2026-05-03 23:00 | 27.52919 | -80.88421 | 30064 ft | 515 kts | 6° |
| 2026-05-03 23:01 | 27.59926 | -80.86646 | 30067 ft | 515 kts | 6° |
| 2026-05-03 23:01 | 27.66922 | -80.85365 | 30078 ft | 507 kts | 351° |
| 2026-05-03 23:01 | 27.70377 | -80.85864 | 30073 ft | 493 kts | 337° |
| 2026-05-03 23:02 | 27.73617 | -80.87044 | 30074 ft | 488 kts | 332° |
| 2026-05-03 23:02 | 27.80048 | -80.89564 | 30074 ft | 489 kts | 332° |
| 2026-05-03 23:03 | 27.86461 | -80.92085 | 30078 ft | 490 kts | 332° |
| 2026-05-03 23:03 | 27.92920 | -80.94619 | 30080 ft | 490 kts | 332° |
| 2026-05-03 23:04 | 27.99375 | -80.97152 | 30080 ft | 490 kts | 332° |
| 2026-05-03 23:04 | 28.05789 | -80.99664 | 30078 ft | 489 kts | 332° |
| 2026-05-03 23:05 | 28.12233 | -81.02195 | 30094 ft | 490 kts | 332° |
| 2026-05-03 23:05 | 28.18638 | -81.04719 | 30083 ft | 490 kts | 332° |
| 2026-05-03 23:06 | 28.25089 | -81.07269 | 30081 ft | 490 kts | 332° |
| 2026-05-03 23:06 | 28.31533 | -81.09814 | 30082 ft | 490 kts | 332° |
| 2026-05-03 23:07 | 28.37997 | -81.12364 | 30119 ft | 490 kts | 332° |
| 2026-05-03 23:07 | 28.44432 | -81.14903 | 30098 ft | 490 kts | 332° |
| 2026-05-03 23:08 | 28.50847 | -81.17442 | 30100 ft | 490 kts | 332° |
| 2026-05-03 23:08 | 28.57283 | -81.20002 | 30095 ft | 490 kts | 332° |
| 2026-05-03 23:09 | 28.63678 | -81.22546 | 30101 ft | 489 kts | 332° |
| 2026-05-03 23:09 | 28.70122 | -81.25106 | 30129 ft | 490 kts | 332° |
| 2026-05-03 23:10 | 28.76573 | -81.27675 | 30111 ft | 490 kts | 332° |
| 2026-05-03 23:10 | 28.82990 | -81.30229 | 30130 ft | 489 kts | 332° |
| 2026-05-03 23:11 | 28.89420 | -81.32791 | 30134 ft | 488 kts | 332° |
| 2026-05-03 23:11 | 28.94751 | -81.34919 | 30132 ft | 487 kts | 332° |
| 2026-05-03 23:12 | 29.02586 | -81.36716 | 30131 ft | 506 kts | 348° |
| 2026-05-03 23:12 | 29.08448 | -81.37104 | 30120 ft | 506 kts | 348° |
| 2026-05-03 23:13 | 29.15481 | -81.37572 | 30110 ft | 505 kts | 348° |
| 2026-05-03 23:13 | 29.22454 | -81.38027 | 30120 ft | 495 kts | 348° |
| 2026-05-03 23:14 | 29.29311 | -81.38498 | 29820 ft | 492 kts | 347° |
| 2026-05-03 23:14 | 29.32689 | -81.38737 | 29551 ft | 491 kts | 348° |
| 2026-05-03 23:14 | 29.36105 | -81.38975 | 29281 ft | 492 kts | 348° |
| 2026-05-03 23:14 | 29.39522 | -81.39207 | 28601 ft | 491 kts | 348° |
| 2026-05-03 23:15 | 29.42928 | -81.39431 | 27252 ft | 485 kts | 348° |
| 2026-05-03 23:15 | 29.46275 | -81.39645 | 26005 ft | 476 kts | 349° |
| 2026-05-03 23:15 | 29.49534 | -81.39933 | 24830 ft | 461 kts | 344° |
| 2026-05-03 23:15 | 29.52575 | -81.40698 | 23749 ft | 449 kts | 335° |
| 2026-05-03 23:16 | 29.55454 | -81.41964 | 22541 ft | 437 kts | 327° |
| 2026-05-03 23:16 | 29.58070 | -81.43637 | 21377 ft | 423 kts | 320° |
| 2026-05-03 23:16 | 29.60402 | -81.45677 | 20439 ft | 416 kts | 312° |
| 2026-05-03 23:16 | 29.62455 | -81.47988 | 19567 ft | 411 kts | 308° |
| 2026-05-03 23:17 | 29.64452 | -81.50333 | 18713 ft | 409 kts | 309° |
| 2026-05-03 23:17 | 29.66453 | -81.52675 | 17755 ft | 413 kts | 309° |
| 2026-05-03 23:17 | 29.68452 | -81.55004 | 16706 ft | 414 kts | 309° |
| 2026-05-03 23:17 | 29.70482 | -81.57353 | 15705 ft | 413 kts | 310° |
| 2026-05-03 23:18 | 29.72506 | -81.59684 | 14830 ft | 408 kts | 310° |
| 2026-05-03 23:18 | 29.74568 | -81.61908 | 13996 ft | 407 kts | 316° |
| 2026-05-03 23:18 | 29.76964 | -81.63662 | 13277 ft | 407 kts | 329° |
| 2026-05-03 23:18 | 29.79592 | -81.64794 | 13039 ft | 398 kts | 340° |
| 2026-05-03 23:19 | 29.82237 | -81.65292 | 13020 ft | 381 kts | 350° |
| 2026-05-03 23:19 | 29.84804 | -81.65516 | 13030 ft | 359 kts | 350° |
| 2026-05-03 23:19 | 29.87228 | -81.65719 | 12995 ft | 341 kts | 351° |
| 2026-05-03 23:19 | 29.89549 | -81.65909 | 12865 ft | 328 kts | 350° |
| 2026-05-03 23:20 | 29.91781 | -81.66127 | 12735 ft | 316 kts | 349° |
| 2026-05-03 23:20 | 29.93938 | -81.66378 | 12563 ft | 307 kts | 348° |
| 2026-05-03 23:20 | 29.96044 | -81.66657 | 12269 ft | 303 kts | 347° |
| 2026-05-03 23:20 | 29.98130 | -81.66955 | 11942 ft | 300 kts | 347° |
| 2026-05-03 23:21 | 30.00194 | -81.67257 | 11614 ft | 298 kts | 347° |
| 2026-05-03 23:21 | 30.02248 | -81.67558 | 11282 ft | 296 kts | 348° |
| 2026-05-03 23:21 | 30.04287 | -81.67853 | 10970 ft | 294 kts | 348° |
| 2026-05-03 23:21 | 30.06286 | -81.68142 | 10642 ft | 292 kts | 348° |
| 2026-05-03 23:22 | 30.10302 | -81.68714 | 10044 ft | 288 kts | 349° |
| 2026-05-03 23:22 | 30.12293 | -81.68994 | 9699 ft | 287 kts | 349° |
| 2026-05-03 23:22 | 30.14267 | -81.69270 | 9364 ft | 285 kts | 350° |
| 2026-05-03 23:23 | 30.16231 | -81.69546 | 9046 ft | 283 kts | 350° |
| 2026-05-03 23:23 | 30.18155 | -81.69817 | 8716 ft | 281 kts | 350° |
| 2026-05-03 23:23 | 30.20091 | -81.70091 | 8389 ft | 279 kts | 350° |
| 2026-05-03 23:23 | 30.22020 | -81.70366 | 8060 ft | 278 kts | 350° |
| 2026-05-03 23:24 | 30.23934 | -81.70640 | 7755 ft | 276 kts | 351° |
| 2026-05-03 23:24 | 30.25833 | -81.70913 | 7438 ft | 274 kts | 351° |
| 2026-05-03 23:24 | 30.27725 | -81.71185 | 7142 ft | 272 kts | 351° |
| 2026-05-03 23:24 | 30.29599 | -81.71454 | 7020 ft | 271 kts | 351° |
| 2026-05-03 23:25 | 30.31478 | -81.71722 | 7033 ft | 272 kts | 351° |
| 2026-05-03 23:25 | 30.33342 | -81.71988 | 7037 ft | 272 kts | 351° |
| 2026-05-03 23:25 | 30.35220 | -81.72208 | 6766 ft | 271 kts | 359° |
| 2026-05-03 23:25 | 30.37079 | -81.71852 | 6448 ft | 272 kts | 12° |
| 2026-05-03 23:26 | 30.38908 | -81.71304 | 6103 ft | 270 kts | 13° |
| 2026-05-03 23:26 | 30.40726 | -81.70736 | 5766 ft | 269 kts | 13° |
| 2026-05-03 23:26 | 30.42534 | -81.70203 | 5435 ft | 267 kts | 8° |
| 2026-05-03 23:26 | 30.44350 | -81.70323 | 5139 ft | 261 kts | 340° |
| 2026-05-03 23:27 | 30.45845 | -81.71392 | 4927 ft | 253 kts | 317° |
| 2026-05-03 23:27 | 30.47028 | -81.72797 | 4803 ft | 233 kts | 310° |
| 2026-05-03 23:27 | 30.48006 | -81.74200 | 4668 ft | 214 kts | 308° |
| 2026-05-03 23:27 | 30.48901 | -81.75524 | 4476 ft | 201 kts | 309° |
| 2026-05-03 23:28 | 30.49933 | -81.76482 | 4217 ft | 187 kts | 341° |
| 2026-05-03 23:28 | 30.51181 | -81.76491 | 3763 ft | 183 kts | 22° |
| 2026-05-03 23:28 | 30.52104 | -81.75563 | 3068 ft | 178 kts | 67° |
| 2026-05-03 23:28 | 30.52121 | -81.74202 | 2323 ft | 173 kts | 112° |
| 2026-05-03 23:29 | 30.51428 | -81.73080 | 1356 ft | 174 kts | 128° |
| 2026-05-03 23:29 | 30.50631 | -81.72026 | 566 ft | 167 kts | 127° |
| 2026-05-03 23:29 | 30.49943 | -81.71095 | 345 ft | 138 kts | 124° |
| 2026-05-03 23:29 | 30.49341 | -81.70260 | 132 ft | 133 kts | 126° |
| 2026-05-03 23:30 | 30.48789 | -81.69512 | 36 ft | 108 kts | 130° |
| 2026-05-03 23:30 | 30.48418 | -81.69005 | 34 ft | 59 kts | 131° |
| 2026-05-03 23:30 | 30.48246 | -81.68771 | 35 ft | 29 kts | 130° |
| 2026-05-03 23:30 | 30.48138 | -81.68608 | 35 ft | 18 kts | 93° |
| 2026-05-03 23:31 | 30.48222 | -81.68500 | 34 ft | 11 kts | 33° |
| 2026-05-03 23:31 | 30.48288 | -81.68537 | 35 ft | 13 kts | 314° |
| 2026-05-03 23:31 | 30.48351 | -81.68625 | 34 ft | 16 kts | 310° |
| 2026-05-03 23:31 | 30.48429 | -81.68731 | 35 ft | 19 kts | 317° |
| 2026-05-03 23:32 | 30.48551 | -81.68731 | 35 ft | 20 kts | 9° |
| 2026-05-03 23:32 | 30.48695 | -81.68700 | 35 ft | 23 kts | 11° |
| 2026-05-03 23:32 | 30.48853 | -81.68705 | 35 ft | 23 kts | 330° |
| 2026-05-03 23:32 | 30.48987 | -81.68783 | 35 ft | 13 kts | 2° |
| 2026-05-03 23:33 | 30.49060 | -81.68747 | 35 ft | 5 kts | 52° |
| 2026-05-03 23:33 | 30.49047 | -81.68696 | 33 ft | 8 kts | 118° |
| 2026-05-03 23:33 | 30.49037 | -81.68676 | 35 ft | 1 kts | 120° |
| 2026-05-03 23:33 | 30.49037 | -81.68675 | 35 ft | 0 kts | 120° |
| 2026-05-03 23:34 | 30.49041 | -81.68684 | 34 ft | 0 kts | 120° |